Terminal Aerodrome Forecast
Issued by NWS Sioux Falls, SD

Home | Current Version | Previous Version | Text Only | Print | Product List | Glossary On
Versions: 1 2 3 4 5 6 7 8 9 10 11 12 13 14 15 16
000
FTUS43 KFSD 220544
TAFFSD
TAF
KFSD 220544Z 2206/2306 VRB03KT P6SM SKC
     FM221100 18005KT P6SM SKC
     FM221700 18011KT P6SM SKC
     FM230000 17007KT P6SM SCT200=

USA.gov is the U.S. government's official web portal to all federal, state and local government web resources and services.